sensor_id;sensor_type;location;lat;lon;timestamp;pressure;altitude;pressure_sealevel;temperature;humidity
31346;BME280;21711;49.708;18.568;2024-02-14T00:01:30;97820.88;;;4.19;100.00
31346;BME280;21711;49.708;18.568;2024-02-14T00:03:57;97819.25;;;3.99;100.00
31346;BME280;21711;49.708;18.568;2024-02-14T00:06:24;97814.59;;;4.01;100.00
31346;BME280;21711;49.708;18.568;2024-02-14T00:08:52;97820.56;;;3.90;100.00
31346;BME280;21711;49.708;18.568;2024-02-14T00:11:19;97818.69;;;3.72;100.00
31346;BME280;21711;49.708;18.568;2024-02-14T00:13:47;97819.66;;;3.77;100.00
31346;BME280;21711;49.708;18.568;2024-02-14T00:16:14;97828.56;;;3.95;100.00
31346;BME280;21711;49.708;18.568;2024-02-14T00:18:41;97812.72;;;4.08;100.00
31346;BME280;21711;49.708;18.568;2024-02-14T00:21:09;97817.88;;;4.15;100.00
31346;BME280;21711;49.708;18.568;2024-02-14T00:23:36;97824.34;;;4.13;100.00
31346;BME280;21711;49.708;18.568;2024-02-14T00:26:04;97824.00;;;4.09;100.00
31346;BME280;21711;49.708;18.568;2024-02-14T00:28:32;97827.00;;;3.87;100.00
31346;BME280;21711;49.708;18.568;2024-02-14T00:30:59;97824.38;;;3.87;100.00
31346;BME280;21711;49.708;18.568;2024-02-14T00:33:27;97829.28;;;4.02;100.00
31346;BME280;21711;49.708;18.568;2024-02-14T00:35:55;97826.16;;;3.93;100.00
31346;BME280;21711;49.708;18.568;2024-02-14T00:38:22;97836.41;;;3.95;100.00
31346;BME280;21711;49.708;18.568;2024-02-14T00:40:49;97831.75;;;3.97;100.00
31346;BME280;21711;49.708;18.568;2024-02-14T00:43:17;97839.38;;;3.99;100.00
31346;BME280;21711;49.708;18.568;2024-02-14T00:45:44;97840.06;;;4.13;100.00
31346;BME280;21711;49.708;18.568;2024-02-14T00:48:12;97838.06;;;3.89;100.00
31346;BME280;21711;49.708;18.568;2024-02-14T00:50:40;97833.81;;;3.70;100.00
31346;BME280;21711;49.708;18.568;2024-02-14T00:53:07;97828.19;;;3.66;100.00
31346;BME280;21711;49.708;18.568;2024-02-14T00:55:35;97822.91;;;3.47;100.00
31346;BME280;21711;49.708;18.568;2024-02-14T00:58:02;97822.19;;;3.33;100.00
31346;BME280;21711;49.708;18.568;2024-02-14T01:00:30;97823.81;;;3.27;100.00
31346;BME280;21711;49.708;18.568;2024-02-14T01:03:02;97827.78;;;3.37;100.00
31346;BME280;21711;49.708;18.568;2024-02-14T01:05:30;97827.91;;;3.49;100.00
31346;BME280;21711;49.708;18.568;2024-02-14T01:07:57;97825.53;;;3.47;100.00
31346;BME280;21711;49.708;18.568;2024-02-14T01:10:24;97821.88;;;3.48;100.00
31346;BME280;21711;49.708;18.568;2024-02-14T01:12:52;97813.09;;;3.36;100.00
31346;BME280;21711;49.708;18.568;2024-02-14T01:15:19;97812.44;;;3.47;100.00
31346;BME280;21711;49.708;18.568;2024-02-14T01:17:47;97817.84;;;3.52;100.00
31346;BME280;21711;49.708;18.568;2024-02-14T01:20:15;97816.59;;;3.55;100.00
31346;BME280;21711;49.708;18.568;2024-02-14T01:22:42;97813.97;;;3.29;100.00
31346;BME280;21711;49.708;18.568;2024-02-14T01:25:10;97811.84;;;3.13;100.00
31346;BME280;21711;49.708;18.568;2024-02-14T01:27:38;97807.53;;;2.93;100.00
31346;BME280;21711;49.708;18.568;2024-02-14T01:30:06;97805.16;;;2.85;100.00
31346;BME280;21711;49.708;18.568;2024-02-14T01:32:34;97803.16;;;2.87;100.00
31346;BME280;21711;49.708;18.568;2024-02-14T01:35:02;97807.75;;;2.85;100.00
31346;BME280;21711;49.708;18.568;2024-02-14T01:37:30;97803.59;;;2.77;100.00
31346;BME280;21711;49.708;18.568;2024-02-14T01:39:58;97798.66;;;2.62;100.00
31346;BME280;21711;49.708;18.568;2024-02-14T01:42:25;97804.97;;;2.41;100.00
31346;BME280;21711;49.708;18.568;2024-02-14T01:44:54;97799.94;;;2.39;100.00
31346;BME280;21711;49.708;18.568;2024-02-14T01:47:22;97793.91;;;2.39;100.00
31346;BME280;21711;49.708;18.568;2024-02-14T01:49:49;97794.56;;;2.27;100.00
31346;BME280;21711;49.708;18.568;2024-02-14T01:52:17;97793.75;;;2.20;100.00
31346;BME280;21711;49.708;18.568;2024-02-14T01:54:44;97794.00;;;2.12;100.00
31346;BME280;21711;49.708;18.568;2024-02-14T01:57:11;97787.75;;;2.13;100.00
31346;BME280;21711;49.708;18.568;2024-02-14T01:59:39;97781.75;;;2.05;100.00
31346;BME280;21711;49.708;18.568;2024-02-14T02:02:07;97783.78;;;1.96;100.00
31346;BME280;21711;49.708;18.568;2024-02-14T02:04:36;97786.97;;;1.92;100.00
31346;BME280;21711;49.708;18.568;2024-02-14T02:07:04;97787.41;;;1.89;100.00
31346;BME280;21711;49.708;18.568;2024-02-14T02:09:31;97783.00;;;1.76;100.00
31346;BME280;21711;49.708;18.568;2024-02-14T02:12:00;97791.63;;;1.69;100.00
31346;BME280;21711;49.708;18.568;2024-02-14T02:14:28;97784.81;;;1.62;100.00
31346;BME280;21711;49.708;18.568;2024-02-14T02:16:57;97786.03;;;1.66;100.00
31346;BME280;21711;49.708;18.568;2024-02-14T02:19:24;97798.66;;;1.69;100.00
31346;BME280;21711;49.708;18.568;2024-02-14T02:21:52;97801.84;;;1.57;100.00
31346;BME280;21711;49.708;18.568;2024-02-14T02:24:19;97798.03;;;1.53;100.00
31346;BME280;21711;49.708;18.568;2024-02-14T02:26:46;97803.25;;;1.40;100.00
31346;BME280;21711;49.708;18.568;2024-02-14T02:29:14;97811.69;;;1.35;100.00
31346;BME280;21711;49.708;18.568;2024-02-14T02:31:42;97800.44;;;1.35;100.00
31346;BME280;21711;49.708;18.568;2024-02-14T02:34:10;97805.06;;;1.39;100.00
31346;BME280;21711;49.708;18.568;2024-02-14T02:36:40;97797.06;;;1.41;100.00
31346;BME280;21711;49.708;18.568;2024-02-14T02:39:07;97813.47;;;1.35;100.00
31346;BME280;21711;49.708;18.568;2024-02-14T02:41:35;97812.03;;;1.18;100.00
31346;BME280;21711;49.708;18.568;2024-02-14T02:44:02;97822.66;;;1.10;100.00
31346;BME280;21711;49.708;18.568;2024-02-14T02:46:30;97825.47;;;1.09;100.00
31346;BME280;21711;49.708;18.568;2024-02-14T02:48:57;97819.06;;;1.11;100.00
31346;BME280;21711;49.708;18.568;2024-02-14T02:51:26;97821.28;;;1.14;100.00
31346;BME280;21711;49.708;18.568;2024-02-14T02:53:54;97816.88;;;1.22;100.00
31346;BME280;21711;49.708;18.568;2024-02-14T02:56:22;97823.88;;;1.28;100.00
31346;BME280;21711;49.708;18.568;2024-02-14T02:58:49;97833.91;;;1.17;100.00
31346;BME280;21711;49.708;18.568;2024-02-14T03:01:16;97832.28;;;1.10;100.00
31346;BME280;21711;49.708;18.568;2024-02-14T03:03:44;97834.69;;;1.11;100.00
31346;BME280;21711;49.708;18.568;2024-02-14T03:06:11;97828.09;;;1.15;100.00
31346;BME280;21711;49.708;18.568;2024-02-14T03:08:39;97834.50;;;1.13;100.00
31346;BME280;21711;49.708;18.568;2024-02-14T03:11:07;97823.66;;;1.02;100.00
31346;BME280;21711;49.708;18.568;2024-02-14T03:13:35;97829.41;;;0.91;100.00
31346;BME280;21711;49.708;18.568;2024-02-14T03:16:04;97827.81;;;0.90;100.00
31346;BME280;21711;49.708;18.568;2024-02-14T03:18:32;97829.03;;;0.94;100.00
31346;BME280;21711;49.708;18.568;2024-02-14T03:21:00;97829.59;;;0.89;100.00
31346;BME280;21711;49.708;18.568;2024-02-14T03:23:28;97839.00;;;0.77;100.00
31346;BME280;21711;49.708;18.568;2024-02-14T03:25:55;97838.81;;;0.78;100.00
31346;BME280;21711;49.708;18.568;2024-02-14T03:28:22;97842.59;;;0.83;100.00
31346;BME280;21711;49.708;18.568;2024-02-14T03:30:50;97847.41;;;0.79;100.00
31346;BME280;21711;49.708;18.568;2024-02-14T03:33:19;97842.78;;;0.68;100.00
31346;BME280;21711;49.708;18.568;2024-02-14T03:35:46;97853.00;;;0.69;100.00
31346;BME280;21711;49.708;18.568;2024-02-14T03:38:25;97850.16;;;0.71;100.00
31346;BME280;21711;49.708;18.568;2024-02-14T03:40:54;97853.63;;;0.78;100.00
31346;BME280;21711;49.708;18.568;2024-02-14T03:43:21;97851.25;;;0.90;100.00
31346;BME280;21711;49.708;18.568;2024-02-14T03:45:51;97855.31;;;0.99;100.00
31346;BME280;21711;49.708;18.568;2024-02-14T03:48:22;97857.94;;;1.06;100.00
31346;BME280;21711;49.708;18.568;2024-02-14T03:50:49;97854.50;;;1.05;100.00
31346;BME280;21711;49.708;18.568;2024-02-14T03:53:17;97852.31;;;1.09;100.00
31346;BME280;21711;49.708;18.568;2024-02-14T03:55:44;97849.16;;;1.21;100.00
31346;BME280;21711;49.708;18.568;2024-02-14T03:58:11;97849.16;;;1.27;100.00
31346;BME280;21711;49.708;18.568;2024-02-14T04:00:41;97854.56;;;1.26;100.00
31346;BME280;21711;49.708;18.568;2024-02-14T04:03:11;97858.97;;;1.25;100.00
31346;BME280;21711;49.708;18.568;2024-02-14T04:05:39;97860.75;;;1.11;100.00
31346;BME280;21711;49.708;18.568;2024-02-14T04:08:07;97857.69;;;0.94;100.00
31346;BME280;21711;49.708;18.568;2024-02-14T04:10:37;97865.03;;;0.77;100.00
31346;BME280;21711;49.708;18.568;2024-02-14T04:13:05;97866.38;;;0.66;100.00
31346;BME280;21711;49.708;18.568;2024-02-14T04:15:33;97861.56;;;0.63;100.00
31346;BME280;21711;49.708;18.568;2024-02-14T04:18:00;97861.53;;;0.56;100.00
31346;BME280;21711;49.708;18.568;2024-02-14T04:20:33;97859.28;;;0.46;100.00
31346;BME280;21711;49.708;18.568;2024-02-14T04:23:01;97862.63;;;0.40;100.00
31346;BME280;21711;49.708;18.568;2024-02-14T04:25:28;97855.84;;;0.39;100.00
31346;BME280;21711;49.708;18.568;2024-02-14T04:27:56;97861.69;;;0.48;100.00
31346;BME280;21711;49.708;18.568;2024-02-14T04:30:23;97868.66;;;0.41;100.00
31346;BME280;21711;49.708;18.568;2024-02-14T04:32:50;97857.38;;;0.27;100.00
31346;BME280;21711;49.708;18.568;2024-02-14T04:35:22;97856.16;;;0.22;100.00
31346;BME280;21711;49.708;18.568;2024-02-14T04:37:49;97866.19;;;0.32;100.00
31346;BME280;21711;49.708;18.568;2024-02-14T04:40:18;97859.63;;;0.36;100.00
31346;BME280;21711;49.708;18.568;2024-02-14T04:42:46;97869.25;;;0.36;100.00
31346;BME280;21711;49.708;18.568;2024-02-14T04:45:14;97866.66;;;0.43;100.00
31346;BME280;21711;49.708;18.568;2024-02-14T04:47:42;97871.66;;;0.44;100.00
31346;BME280;21711;49.708;18.568;2024-02-14T04:50:09;97869.63;;;0.33;100.00
31346;BME280;21711;49.708;18.568;2024-02-14T04:52:37;97866.00;;;0.34;100.00
31346;BME280;21711;49.708;18.568;2024-02-14T04:55:06;97866.00;;;0.34;100.00
31346;BME280;21711;49.708;18.568;2024-02-14T04:57:33;97865.00;;;0.35;100.00
31346;BME280;21711;49.708;18.568;2024-02-14T05:00:04;97867.84;;;0.33;100.00
31346;BME280;21711;49.708;18.568;2024-02-14T05:02:33;97872.00;;;0.28;100.00
31346;BME280;21711;49.708;18.568;2024-02-14T05:05:01;97869.16;;;0.22;100.00
31346;BME280;21711;49.708;18.568;2024-02-14T05:07:29;97875.91;;;0.17;100.00
31346;BME280;21711;49.708;18.568;2024-02-14T05:09:56;97874.91;;;0.18;100.00
31346;BME280;21711;49.708;18.568;2024-02-14T05:12:23;97873.50;;;0.15;100.00
31346;BME280;21711;49.708;18.568;2024-02-14T05:14:51;97872.50;;;0.16;100.00
31346;BME280;21711;49.708;18.568;2024-02-14T05:17:18;97874.25;;;0.09;100.00
31346;BME280;21711;49.708;18.568;2024-02-14T05:19:45;97878.00;;;-0.01;100.00
31346;BME280;21711;49.708;18.568;2024-02-14T05:22:13;97877.81;;;0.01;100.00
31346;BME280;21711;49.708;18.568;2024-02-14T05:24:40;97872.38;;;-0.04;100.00
31346;BME280;21711;49.708;18.568;2024-02-14T05:27:08;97874.16;;;-0.05;100.00
31346;BME280;21711;49.708;18.568;2024-02-14T05:29:35;97864.81;;;0.01;100.00
31346;BME280;21711;49.708;18.568;2024-02-14T05:32:03;97874.25;;;0.09;100.00
31346;BME280;21711;49.708;18.568;2024-02-14T05:34:31;97869.53;;;0.19;100.00
31346;BME280;21711;49.708;18.568;2024-02-14T05:36:59;97868.94;;;0.17;100.00
31346;BME280;21711;49.708;18.568;2024-02-14T05:39:26;97863.44;;;0.05;100.00
31346;BME280;21711;49.708;18.568;2024-02-14T05:41:53;97861.34;;;-0.06;100.00
31346;BME280;21711;49.708;18.568;2024-02-14T05:44:21;97864.34;;;-0.09;100.00
31346;BME280;21711;49.708;18.568;2024-02-14T05:46:49;97859.59;;;0.01;100.00
31346;BME280;21711;49.708;18.568;2024-02-14T05:49:17;97871.78;;;0.01;100.00
31346;BME280;21711;49.708;18.568;2024-02-14T05:51:44;97877.81;;;0.01;100.00
31346;BME280;21711;49.708;18.568;2024-02-14T05:54:12;97876.44;;;0.05;100.00
31346;BME280;21711;49.708;18.568;2024-02-14T05:56:39;97878.84;;;0.07;100.00
31346;BME280;21711;49.708;18.568;2024-02-14T05:59:07;97878.53;;;0.17;100.00
31346;BME280;21711;49.708;18.568;2024-02-14T06:01:35;97889.16;;;0.22;100.00
31346;BME280;21711;49.708;18.568;2024-02-14T06:04:02;97894.31;;;0.15;100.00
31346;BME280;21711;49.708;18.568;2024-02-14T06:06:30;97895.06;;;0.09;100.00
31346;BME280;21711;49.708;18.568;2024-02-14T06:08:57;97893.88;;;0.11;100.00
31346;BME280;21711;49.708;18.568;2024-02-14T06:11:25;97897.53;;;0.17;100.00
31346;BME280;21711;49.708;18.568;2024-02-14T06:13:53;97894.22;;;0.30;100.00
31346;BME280;21711;49.708;18.568;2024-02-14T06:16:20;97890.53;;;0.46;100.00
31346;BME280;21711;49.708;18.568;2024-02-14T06:18:47;97902.88;;;0.73;100.00
31346;BME280;21711;49.708;18.568;2024-02-14T06:21:15;97907.94;;;1.43;100.00
31346;BME280;21711;49.708;18.568;2024-02-14T06:23:42;97902.97;;;2.09;100.00
31346;BME280;21711;49.708;18.568;2024-02-14T06:26:11;97905.94;;;2.47;100.00
31346;BME280;21711;49.708;18.568;2024-02-14T06:28:39;97906.13;;;2.59;100.00
31346;BME280;21711;49.708;18.568;2024-02-14T06:31:07;97908.16;;;2.57;100.00
31346;BME280;21711;49.708;18.568;2024-02-14T06:33:35;97907.34;;;2.49;100.00
31346;BME280;21711;49.708;18.568;2024-02-14T06:36:03;97911.38;;;2.45;100.00
31346;BME280;21711;49.708;18.568;2024-02-14T06:38:33;97913.59;;;2.35;100.00
31346;BME280;21711;49.708;18.568;2024-02-14T06:41:01;97912.41;;;2.24;100.00
31346;BME280;21711;49.708;18.568;2024-02-14T06:43:28;97908.38;;;2.21;100.00
31346;BME280;21711;49.708;18.568;2024-02-14T06:45:56;97907.19;;;2.24;100.00
31346;BME280;21711;49.708;18.568;2024-02-14T06:48:24;97897.56;;;2.18;100.00
31346;BME280;21711;49.708;18.568;2024-02-14T06:50:52;97907.19;;;2.17;100.00
31346;BME280;21711;49.708;18.568;2024-02-14T06:53:19;97900.16;;;2.18;100.00
31346;BME280;21711;49.708;18.568;2024-02-14T06:55:46;97902.97;;;2.36;100.00
31346;BME280;21711;49.708;18.568;2024-02-14T06:58:14;97910.59;;;2.45;100.00
31346;BME280;21711;49.708;18.568;2024-02-14T07:00:41;97908.75;;;2.39;100.00
31346;BME280;21711;49.708;18.568;2024-02-14T07:03:09;97905.16;;;2.40;100.00
31346;BME280;21711;49.708;18.568;2024-02-14T07:05:37;97914.19;;;2.44;100.00
31346;BME280;21711;49.708;18.568;2024-02-14T07:08:05;97916.38;;;2.47;100.00
31346;BME280;21711;49.708;18.568;2024-02-14T07:10:32;97920.59;;;2.55;100.00
31346;BME280;21711;49.708;18.568;2024-02-14T07:13:00;97921.13;;;2.77;100.00
31346;BME280;21711;49.708;18.568;2024-02-14T07:15:27;97920.91;;;2.85;100.00
31346;BME280;21711;49.708;18.568;2024-02-14T07:17:56;97914.84;;;2.98;100.00
31346;BME280;21711;49.708;18.568;2024-02-14T07:20:25;97919.44;;;3.49;100.00
31346;BME280;21711;49.708;18.568;2024-02-14T07:22:55;97923.75;;;4.45;98.12
31346;BME280;21711;49.708;18.568;2024-02-14T07:25:24;97922.22;;;5.61;90.82
31346;BME280;21711;49.708;18.568;2024-02-14T07:27:51;97924.44;;;5.88;85.35
31346;BME280;21711;49.708;18.568;2024-02-14T07:30:19;97917.53;;;6.18;81.64
31346;BME280;21711;49.708;18.568;2024-02-14T07:32:46;97928.03;;;6.78;77.83
31346;BME280;21711;49.708;18.568;2024-02-14T07:35:14;97934.81;;;7.73;74.32
31346;BME280;21711;49.708;18.568;2024-02-14T07:37:41;97929.09;;;8.10;72.93
31346;BME280;21711;49.708;18.568;2024-02-14T07:40:10;97929.41;;;8.14;71.82
31346;BME280;21711;49.708;18.568;2024-02-14T07:42:39;97933.75;;;8.77;66.72
31346;BME280;21711;49.708;18.568;2024-02-14T07:45:07;97932.38;;;9.41;65.00
31346;BME280;21711;49.708;18.568;2024-02-14T07:47:34;97938.34;;;11.11;59.93
31346;BME280;21711;49.708;18.568;2024-02-14T07:50:02;97940.41;;;12.09;53.70
31346;BME280;21711;49.708;18.568;2024-02-14T07:52:30;97947.47;;;13.42;49.17
31346;BME280;21711;49.708;18.568;2024-02-14T07:55:01;97945.66;;;12.56;50.75
31346;BME280;21711;49.708;18.568;2024-02-14T07:57:28;97950.03;;;13.02;48.74
31346;BME280;21711;49.708;18.568;2024-02-14T07:59:56;97948.72;;;14.30;45.57
31346;BME280;21711;49.708;18.568;2024-02-14T08:02:23;97954.94;;;14.79;44.48
31346;BME280;21711;49.708;18.568;2024-02-14T08:04:51;97955.03;;;14.93;44.95
31346;BME280;21711;49.708;18.568;2024-02-14T08:07:19;97947.78;;;15.62;41.19
31346;BME280;21711;49.708;18.568;2024-02-14T08:09:46;97946.38;;;16.50;39.58
31346;BME280;21711;49.708;18.568;2024-02-14T08:12:14;97949.75;;;16.42;40.70
31346;BME280;21711;49.708;18.568;2024-02-14T08:14:41;97942.97;;;16.78;38.87
31346;BME280;21711;49.708;18.568;2024-02-14T08:17:08;97946.72;;;17.05;38.32
31346;BME280;21711;49.708;18.568;2024-02-14T08:19:36;97953.75;;;17.88;37.60
31346;BME280;21711;49.708;18.568;2024-02-14T08:22:03;97948.28;;;17.20;40.84
31346;BME280;21711;49.708;18.568;2024-02-14T08:24:32;97952.94;;;16.86;39.17
31346;BME280;21711;49.708;18.568;2024-02-14T08:27:00;97956.16;;;17.39;37.46
31346;BME280;21711;49.708;18.568;2024-02-14T08:29:27;97964.00;;;18.73;37.35
31346;BME280;21711;49.708;18.568;2024-02-14T08:31:55;97964.84;;;19.49;34.65
31346;BME280;21711;49.708;18.568;2024-02-14T08:34:23;97963.63;;;18.57;36.43
31346;BME280;21711;49.708;18.568;2024-02-14T08:36:51;97958.69;;;18.50;35.28
31346;BME280;21711;49.708;18.568;2024-02-14T08:39:18;97969.56;;;19.79;33.14
31346;BME280;21711;49.708;18.568;2024-02-14T08:41:47;97958.25;;;20.00;32.56
31346;BME280;21711;49.708;18.568;2024-02-14T08:44:14;97951.06;;;18.66;34.64
31346;BME280;21711;49.708;18.568;2024-02-14T08:46:41;97948.72;;;18.73;36.17
31346;BME280;21711;49.708;18.568;2024-02-14T08:49:12;97952.94;;;19.06;35.71
31346;BME280;21711;49.708;18.568;2024-02-14T08:51:39;97945.16;;;18.46;35.67
31346;BME280;21711;49.708;18.568;2024-02-14T08:54:07;97953.19;;;18.87;34.67
31346;BME280;21711;49.708;18.568;2024-02-14T08:56:34;97950.13;;;20.17;30.80
31346;BME280;21711;49.708;18.568;2024-02-14T08:59:03;97958.31;;;20.77;30.23
31346;BME280;21711;49.708;18.568;2024-02-14T09:01:30;97952.31;;;21.41;30.24
31346;BME280;21711;49.708;18.568;2024-02-14T09:03:58;97966.63;;;21.54;28.81
31346;BME280;21711;49.708;18.568;2024-02-14T09:06:26;97954.66;;;21.42;30.93
31346;BME280;21711;49.708;18.568;2024-02-14T09:08:53;97948.91;;;21.01;30.60
31346;BME280;21711;49.708;18.568;2024-02-14T09:11:22;97946.63;;;21.12;31.79
31346;BME280;21711;49.708;18.568;2024-02-14T09:13:50;97948.91;;;22.54;28.87
31346;BME280;21711;49.708;18.568;2024-02-14T09:16:21;97942.00;;;21.64;29.92
31346;BME280;21711;49.708;18.568;2024-02-14T09:18:50;97942.44;;;21.45;29.53
31346;BME280;21711;49.708;18.568;2024-02-14T09:21:17;97939.19;;;20.40;30.62
31346;BME280;21711;49.708;18.568;2024-02-14T09:23:47;97932.66;;;20.02;30.22
31346;BME280;21711;49.708;18.568;2024-02-14T09:26:15;97945.34;;;20.88;29.75
31346;BME280;21711;49.708;18.568;2024-02-14T09:28:45;97943.56;;;21.65;28.15
31346;BME280;21711;49.708;18.568;2024-02-14T09:31:17;97946.59;;;21.85;27.69
31346;BME280;21711;49.708;18.568;2024-02-14T09:33:47;97954.38;;;22.45;26.62
31346;BME280;21711;49.708;18.568;2024-02-14T09:36:15;97933.50;;;21.96;27.78
31346;BME280;21711;49.708;18.568;2024-02-14T09:38:43;97947.59;;;22.85;26.92
31346;BME280;21711;49.708;18.568;2024-02-14T09:41:15;97950.19;;;22.36;27.57
31346;BME280;21711;49.708;18.568;2024-02-14T09:43:46;97947.81;;;22.68;27.89
31346;BME280;21711;49.708;18.568;2024-02-14T09:46:15;97951.28;;;23.59;26.44
31346;BME280;21711;49.708;18.568;2024-02-14T09:48:45;97952.59;;;25.39;24.51
31346;BME280;21711;49.708;18.568;2024-02-14T09:51:13;97951.59;;;26.73;23.05
31346;BME280;21711;49.708;18.568;2024-02-14T09:53:41;97947.06;;;25.52;22.92
31346;BME280;21711;49.708;18.568;2024-02-14T09:56:11;97941.03;;;24.71;24.09
31346;BME280;21711;49.708;18.568;2024-02-14T09:58:40;97949.00;;;23.45;24.62
31346;BME280;21711;49.708;18.568;2024-02-14T10:01:08;97939.63;;;21.63;27.57
31346;BME280;21711;49.708;18.568;2024-02-14T10:03:35;97946.91;;;23.01;26.83
31346;BME280;21711;49.708;18.568;2024-02-14T10:06:03;97936.53;;;23.16;26.78
31346;BME280;21711;49.708;18.568;2024-02-14T10:08:32;97941.81;;;24.71;24.22
31346;BME280;21711;49.708;18.568;2024-02-14T10:11:00;97935.16;;;21.88;27.49
31346;BME280;21711;49.708;18.568;2024-02-14T10:13:28;97928.13;;;18.83;30.83
31346;BME280;21711;49.708;18.568;2024-02-14T10:15:56;97906.16;;;16.47;35.49
31346;BME280;21711;49.708;18.568;2024-02-14T10:18:23;97909.88;;;16.17;35.21
31346;BME280;21711;49.708;18.568;2024-02-14T10:20:58;97898.09;;;16.04;37.94
31346;BME280;21711;49.708;18.568;2024-02-14T10:23:27;97896.72;;;15.88;37.60
31346;BME280;21711;49.708;18.568;2024-02-14T10:25:55;97903.75;;;14.82;39.87
31346;BME280;21711;49.708;18.568;2024-02-14T10:28:23;97892.44;;;15.54;40.49
31346;BME280;21711;49.708;18.568;2024-02-14T10:31:05;97893.31;;;15.10;38.51
31346;BME280;21711;49.708;18.568;2024-02-14T10:33:32;97895.41;;;15.33;37.80
31346;BME280;21711;49.708;18.568;2024-02-14T10:36:00;97896.34;;;15.42;38.85
31346;BME280;21711;49.708;18.568;2024-02-14T10:38:33;97892.31;;;16.45;37.07
31346;BME280;21711;49.708;18.568;2024-02-14T10:41:02;97884.09;;;15.41;36.94
31346;BME280;21711;49.708;18.568;2024-02-14T10:43:30;97890.50;;;15.02;38.69
31346;BME280;21711;49.708;18.568;2024-02-14T10:46:12;97884.38;;;15.01;38.83
31346;BME280;21711;49.708;18.568;2024-02-14T10:48:42;97894.25;;;15.01;38.36
31346;BME280;21711;49.708;18.568;2024-02-14T10:51:12;97897.78;;;15.54;37.19
31346;BME280;21711;49.708;18.568;2024-02-14T10:53:45;97891.75;;;16.00;38.50
31346;BME280;21711;49.708;18.568;2024-02-14T10:56:18;97892.88;;;16.27;37.16
31346;BME280;21711;49.708;18.568;2024-02-14T10:58:47;97889.06;;;16.62;37.25
31346;BME280;21711;49.708;18.568;2024-02-14T11:01:17;97884.31;;;16.59;38.19
31346;BME280;21711;49.708;18.568;2024-02-14T11:03:45;97885.69;;;16.70;36.95
31346;BME280;21711;49.708;18.568;2024-02-14T11:06:16;97888.75;;;16.49;36.87
31346;BME280;21711;49.708;18.568;2024-02-14T11:09:04;97883.72;;;16.34;37.14
31346;BME280;21711;49.708;18.568;2024-02-14T11:11:40;97876.59;;;15.24;37.33
31346;BME280;21711;49.708;18.568;2024-02-14T11:14:07;97882.50;;;15.02;39.68
31346;BME280;21711;49.708;18.568;2024-02-14T11:16:37;97875.56;;;14.57;39.76
31346;BME280;21711;49.708;18.568;2024-02-14T11:19:12;97876.25;;;15.50;38.41
31346;BME280;21711;49.708;18.568;2024-02-14T11:21:46;97864.31;;;14.11;40.18
31346;BME280;21711;49.708;18.568;2024-02-14T11:24:16;97869.13;;;14.88;39.98
31346;BME280;21711;49.708;18.568;2024-02-14T11:26:51;97859.66;;;13.98;42.27
31346;BME280;21711;49.708;18.568;2024-02-14T11:29:20;97856.06;;;14.37;40.06
31346;BME280;21711;49.708;18.568;2024-02-14T11:32:01;97860.03;;;15.46;40.11
31346;BME280;21711;49.708;18.568;2024-02-14T11:34:33;97852.97;;;15.89;38.73
31346;BME280;21711;49.708;18.568;2024-02-14T11:37:04;97860.38;;;17.78;35.06
31346;BME280;21711;49.708;18.568;2024-02-14T11:39:35;97852.16;;;16.22;36.10
31346;BME280;21711;49.708;18.568;2024-02-14T11:42:04;97854.41;;;15.48;38.50
31346;BME280;21711;49.708;18.568;2024-02-14T11:44:31;97853.41;;;15.44;39.08
31346;BME280;21711;49.708;18.568;2024-02-14T11:47:00;97853.41;;;14.62;40.30
31346;BME280;21711;49.708;18.568;2024-02-14T11:49:28;97847.81;;;14.39;39.94
31346;BME280;21711;49.708;18.568;2024-02-14T11:51:55;97849.78;;;14.52;39.68
31346;BME280;21711;49.708;18.568;2024-02-14T11:54:24;97844.53;;;14.71;40.15
31346;BME280;21711;49.708;18.568;2024-02-14T11:56:51;97839.88;;;15.40;39.17
31346;BME280;21711;49.708;18.568;2024-02-14T11:59:19;97841.91;;;15.82;37.55
31346;BME280;21711;49.708;18.568;2024-02-14T12:01:47;97840.00;;;16.58;38.00
31346;BME280;21711;49.708;18.568;2024-02-14T12:04:16;97839.63;;;15.56;37.67
31346;BME280;21711;49.708;18.568;2024-02-14T12:06:44;97835.94;;;15.37;39.14
31346;BME280;21711;49.708;18.568;2024-02-14T12:09:12;97837.75;;;16.23;38.13
31346;BME280;21711;49.708;18.568;2024-02-14T12:11:41;97834.28;;;15.89;36.99
31346;BME280;21711;49.708;18.568;2024-02-14T12:14:13;97831.16;;;16.99;35.98
31346;BME280;21711;49.708;18.568;2024-02-14T12:16:41;97840.13;;;18.58;33.28
31346;BME280;21711;49.708;18.568;2024-02-14T12:19:14;97836.38;;;17.41;34.48
31346;BME280;21711;49.708;18.568;2024-02-14T12:21:44;97827.75;;;16.56;36.52
31346;BME280;21711;49.708;18.568;2024-02-14T12:24:13;97835.22;;;16.96;36.68
31346;BME280;21711;49.708;18.568;2024-02-14T12:26:42;97826.56;;;16.63;35.76
31346;BME280;21711;49.708;18.568;2024-02-14T12:29:13;97841.97;;;18.40;34.57
31346;BME280;21711;49.708;18.568;2024-02-14T12:31:41;97834.09;;;19.11;33.26
31346;BME280;21711;49.708;18.568;2024-02-14T12:34:12;97831.56;;;19.14;32.42
31346;BME280;21711;49.708;18.568;2024-02-14T12:36:40;97830.84;;;19.79;33.08
31346;BME280;21711;49.708;18.568;2024-02-14T12:39:08;97825.97;;;18.75;32.55
31346;BME280;21711;49.708;18.568;2024-02-14T12:41:40;97817.97;;;17.94;34.31
31346;BME280;21711;49.708;18.568;2024-02-14T12:44:08;97823.75;;;18.69;32.88
31346;BME280;21711;49.708;18.568;2024-02-14T12:46:35;97820.09;;;18.47;33.77
31346;BME280;21711;49.708;18.568;2024-02-14T12:49:05;97817.81;;;18.89;33.47
31346;BME280;21711;49.708;18.568;2024-02-14T12:51:34;97811.16;;;18.11;34.22
31346;BME280;21711;49.708;18.568;2024-02-14T12:54:04;97810.84;;;16.75;36.32
31346;BME280;21711;49.708;18.568;2024-02-14T12:56:32;97811.59;;;18.04;34.37